Time;durP1;ratioP1;P1;durP2;ratioP2;P2;SDS_P1;SDS_P2;PMS_P1;PMS_P2;Temp;Humidity;BMP_temperature;BMP_pressure;BME280_temperature;BME280_humidity;BME280_pressure;Samples;Min_cycle;Max_cycle;Signal;HPM_P1;HPM_P2
2023/05/28 00:01:46;;;;;;;7.30;4.50;;;;;;;-128.00;-1.00;-1.00;97888;297;1002977;-29
2023/05/28 00:04:12;;;;;;;8.10;4.70;;;;;;;-128.00;-1.00;-1.00;97761;285;1003865;-29
2023/05/28 00:06:37;;;;;;;10.90;4.90;;;;;;;-128.00;-1.00;-1.00;97773;287;1003778;-33
2023/05/28 00:09:03;;;;;;;3.30;2.30;;;;;;;-128.00;-1.00;-1.00;97842;285;1005169;-29
2023/05/28 00:11:29;;;;;;;7.70;2.90;;;;;;;-128.00;-1.00;-1.00;97837;297;1003946;-33
2023/05/28 00:13:54;;;;;;;4.90;2.00;;;;;;;-128.00;-1.00;-1.00;97786;297;1004218;-29
2023/05/28 00:16:20;;;;;;;4.00;2.00;;;;;;;-128.00;-1.00;-1.00;97792;285;1004206;-28
2023/05/28 00:18:46;;;;;;;6.00;3.50;;;;;;;-128.00;-1.00;-1.00;97755;297;1004726;-36
2023/05/28 00:21:12;;;;;;;14.70;6.00;;;;;;;-128.00;-1.00;-1.00;97841;297;1002809;-33
2023/05/28 00:23:37;;;;;;;11.00;5.40;;;;;;;-128.00;-1.00;-1.00;97832;297;1002733;-33
2023/05/28 00:26:03;;;;;;;9.50;7.10;;;;;;;-128.00;-1.00;-1.00;97775;297;1003530;-33
2023/05/28 00:28:29;;;;;;;10.80;5.40;;;;;;;-128.00;-1.00;-1.00;97758;297;1004119;-33
2023/05/28 00:30:54;;;;;;;15.30;7.90;;;;;;;-128.00;-1.00;-1.00;97780;297;1004603;-30
2023/05/28 00:33:20;;;;;;;11.00;6.20;;;;;;;-128.00;-1.00;-1.00;97807;297;1003835;-30
2023/05/28 00:35:46;;;;;;;5.80;3.30;;;;;;;-128.00;-1.00;-1.00;97877;297;1004071;-30
2023/05/28 00:38:11;;;;;;;7.60;5.30;;;;;;;-128.00;-1.00;-1.00;97670;297;1003997;-34
2023/05/28 00:40:42;;;;;;;8.20;3.70;;;;;;;-128.00;-1.00;-1.00;97883;297;1003109;-33
2023/05/28 00:43:08;;;;;;;7.90;3.00;;;;;;;-128.00;-1.00;-1.00;97732;298;1004086;-35
2023/05/28 00:45:34;;;;;;;6.60;4.80;;;;;;;-128.00;-1.00;-1.00;97727;297;1002940;-30
2023/05/28 00:47:59;;;;;;;12.50;6.50;;;;;;;-128.00;-1.00;-1.00;97826;297;1003761;-32
2023/05/28 00:50:25;;;;;;;13.30;7.60;;;;;;;-128.00;-1.00;-1.00;97852;297;1005045;-33
2023/05/28 00:52:52;;;;;;;7.20;5.80;;;;;;;-128.00;-1.00;-1.00;97704;297;1003562;-32
2023/05/28 00:55:17;;;;;;;7.10;4.50;;;;;;;-128.00;-1.00;-1.00;97700;297;1004509;-34
2023/05/28 00:57:43;;;;;;;5.40;3.80;;;;;;;-128.00;-1.00;-1.00;97804;297;1003745;-31
2023/05/28 01:00:09;;;;;;;12.20;5.00;;;;;;;-128.00;-1.00;-1.00;97796;297;1005532;-33
2023/05/28 01:02:35;;;;;;;3.90;2.50;;;;;;;-128.00;-1.00;-1.00;97888;297;1003827;-33
2023/05/28 01:05:01;;;;;;;5.50;3.20;;;;;;;-128.00;-1.00;-1.00;97841;297;1004331;-30
2023/05/28 01:07:27;;;;;;;6.60;3.00;;;;;;;-128.00;-1.00;-1.00;97875;297;1005515;-32
2023/05/28 01:09:53;;;;;;;13.00;2.90;;;;;;;-128.00;-1.00;-1.00;97885;297;1003449;-30
2023/05/28 01:12:18;;;;;;;5.50;3.60;;;;;;;-128.00;-1.00;-1.00;97833;297;1003122;-34
2023/05/28 01:14:44;;;;;;;7.90;3.90;;;;;;;-128.00;-1.00;-1.00;97823;297;1003305;-33
2023/05/28 01:17:10;;;;;;;4.40;3.30;;;;;;;-128.00;-1.00;-1.00;97784;297;1004046;-29
2023/05/28 01:19:36;;;;;;;10.10;4.50;;;;;;;-128.00;-1.00;-1.00;97800;297;1002993;-33
2023/05/28 01:22:05;;;;;;;7.30;4.80;;;;;;;-128.00;-1.00;-1.00;97825;297;1003924;-33
2023/05/28 01:24:35;;;;;;;12.00;6.60;;;;;;;-128.00;-1.00;-1.00;97939;297;1002607;-29
2023/05/28 01:27:02;;;;;;;13.60;6.00;;;;;;;-128.00;-1.00;-1.00;97918;297;1003461;-29
2023/05/28 01:29:27;;;;;;;11.30;6.40;;;;;;;-128.00;-1.00;-1.00;97776;297;1003977;-29
2023/05/28 01:31:53;;;;;;;18.60;5.70;;;;;;;-128.00;-1.00;-1.00;97789;297;1003448;-29
2023/05/28 01:34:18;;;;;;;9.90;6.40;;;;;;;-128.00;-1.00;-1.00;97714;297;1004557;-29
2023/05/28 01:37:01;;;;;;;16.70;7.00;;;;;;;-128.00;-1.00;-1.00;97811;297;1003305;-37
2023/05/28 01:39:27;;;;;;;18.20;8.10;;;;;;;-128.00;-1.00;-1.00;97890;297;1004904;-34
2023/05/28 01:41:53;;;;;;;10.60;6.90;;;;;;;-128.00;-1.00;-1.00;97777;298;1003977;-36
2023/05/28 01:44:19;;;;;;;13.10;6.50;;;;;;;-128.00;-1.00;-1.00;97795;297;1003051;-33
2023/05/28 01:46:45;;;;;;;12.30;6.80;;;;;;;-128.00;-1.00;-1.00;97915;297;1003080;-29
2023/05/28 01:49:11;;;;;;;10.40;6.40;;;;;;;-128.00;-1.00;-1.00;97749;297;1004293;-29
2023/05/28 01:51:37;;;;;;;9.80;6.10;;;;;;;-128.00;-1.00;-1.00;97725;297;1003914;-29
2023/05/28 01:54:03;;;;;;;13.60;6.00;;;;;;;-128.00;-1.00;-1.00;97830;297;1004302;-29
2023/05/28 01:56:29;;;;;;;13.10;6.70;;;;;;;-128.00;-1.00;-1.00;97793;297;1003195;-34
2023/05/28 01:58:55;;;;;;;10.60;6.40;;;;;;;-128.00;-1.00;-1.00;97846;297;1003409;-31
2023/05/28 02:01:29;;;;;;;15.50;7.60;;;;;;;-128.00;-1.00;-1.00;97884;297;1004541;-34
2023/05/28 02:03:56;;;;;;;21.40;8.50;;;;;;;-128.00;-1.00;-1.00;97864;297;1003948;-33
2023/05/28 02:06:21;;;;;;;12.50;7.70;;;;;;;-128.00;-1.00;-1.00;97837;297;1003096;-35
2023/05/28 02:08:47;;;;;;;10.00;6.10;;;;;;;-128.00;-1.00;-1.00;97775;297;1003725;-34
2023/05/28 02:11:12;;;;;;;9.60;6.40;;;;;;;-128.00;-1.00;-1.00;97760;297;1003044;-29
2023/05/28 02:13:39;;;;;;;8.20;5.30;;;;;;;-128.00;-1.00;-1.00;97736;297;1004263;-29
2023/05/28 02:16:06;;;;;;;10.00;4.80;;;;;;;-128.00;-1.00;-1.00;97808;297;1003488;-30
2023/05/28 02:18:32;;;;;;;10.80;5.90;;;;;;;-128.00;-1.00;-1.00;97937;297;1003394;-33
2023/05/28 02:20:58;;;;;;;8.30;5.70;;;;;;;-128.00;-1.00;-1.00;97921;297;1003802;-33
2023/05/28 02:23:24;;;;;;;12.70;6.40;;;;;;;-128.00;-1.00;-1.00;97869;297;1003067;-30
2023/05/28 02:25:49;;;;;;;14.30;6.50;;;;;;;-128.00;-1.00;-1.00;97806;297;1003317;-29
2023/05/28 02:28:15;;;;;;;15.80;7.90;;;;;;;-128.00;-1.00;-1.00;97836;297;1004109;-32
2023/05/28 02:30:41;;;;;;;8.00;4.60;;;;;;;-128.00;-1.00;-1.00;97787;297;1003229;-29
2023/05/28 02:33:06;;;;;;;10.00;5.50;;;;;;;-128.00;-1.00;-1.00;97716;297;1003348;-34
2023/05/28 02:35:32;;;;;;;7.30;5.00;;;;;;;-128.00;-1.00;-1.00;97811;297;1003616;-34
2023/05/28 02:37:58;;;;;;;12.00;4.70;;;;;;;-128.00;-1.00;-1.00;97877;297;1003150;-30
2023/05/28 02:40:23;;;;;;;8.00;4.00;;;;;;;-128.00;-1.00;-1.00;97808;297;1004485;-33
2023/05/28 02:42:50;;;;;;;9.20;3.50;;;;;;;-128.00;-1.00;-1.00;97809;297;1003533;-28
2023/05/28 02:45:16;;;;;;;3.60;2.40;;;;;;;-128.00;-1.00;-1.00;97792;297;1003804;-30
2023/05/28 02:47:41;;;;;;;9.50;5.00;;;;;;;-128.00;-1.00;-1.00;97797;297;1003467;-34
2023/05/28 02:50:08;;;;;;;5.80;4.30;;;;;;;-128.00;-1.00;-1.00;97752;297;1002768;-35
2023/05/28 02:52:33;;;;;;;6.40;3.90;;;;;;;-128.00;-1.00;-1.00;97694;299;1005260;-35
2023/05/28 02:54:59;;;;;;;8.30;3.70;;;;;;;-128.00;-1.00;-1.00;97842;297;1004770;-32
2023/05/28 02:57:25;;;;;;;9.30;4.70;;;;;;;-128.00;-1.00;-1.00;97791;297;1003594;-33
2023/05/28 02:59:54;;;;;;;8.40;4.00;;;;;;;-128.00;-1.00;-1.00;97816;297;1003212;-29
2023/05/28 03:02:20;;;;;;;10.50;4.30;;;;;;;-128.00;-1.00;-1.00;97734;297;1003343;-32
2023/05/28 03:04:45;;;;;;;4.90;2.40;;;;;;;-128.00;-1.00;-1.00;97734;297;1004193;-34
2023/05/28 03:07:11;;;;;;;5.10;2.40;;;;;;;-128.00;-1.00;-1.00;97843;297;1002879;-34
2023/05/28 03:09:37;;;;;;;5.30;3.00;;;;;;;-128.00;-1.00;-1.00;97800;297;1003841;-29
2023/05/28 03:12:03;;;;;;;7.50;5.00;;;;;;;-128.00;-1.00;-1.00;97880;297;1003428;-34
2023/05/28 03:14:28;;;;;;;10.80;6.50;;;;;;;-128.00;-1.00;-1.00;97755;297;1003364;-28
2023/05/28 03:16:54;;;;;;;5.90;4.10;;;;;;;-128.00;-1.00;-1.00;97778;286;1004054;-29
2023/05/28 03:19:20;;;;;;;8.40;5.00;;;;;;;-128.00;-1.00;-1.00;97794;297;1002758;-35
2023/05/28 03:21:45;;;;;;;5.70;2.90;;;;;;;-128.00;-1.00;-1.00;97808;297;1005094;-30
2023/05/28 03:24:11;;;;;;;3.00;1.70;;;;;;;-128.00;-1.00;-1.00;97869;297;1003027;-29
2023/05/28 03:26:37;;;;;;;5.60;2.20;;;;;;;-128.00;-1.00;-1.00;97744;299;1003405;-34
2023/05/28 03:29:02;;;;;;;2.80;1.80;;;;;;;-128.00;-1.00;-1.00;97860;298;1003842;-30
2023/05/28 03:31:29;;;;;;;7.00;3.10;;;;;;;-128.00;-1.00;-1.00;97778;298;1004283;-33
2023/05/28 03:33:55;;;;;;;7.50;3.20;;;;;;;-128.00;-1.00;-1.00;97545;297;1003480;-34
2023/05/28 03:36:22;;;;;;;15.00;3.80;;;;;;;-128.00;-1.00;-1.00;97867;297;1003156;-36
2023/05/28 03:38:47;;;;;;;12.00;4.80;;;;;;;-128.00;-1.00;-1.00;97822;286;1004466;-33
2023/05/28 03:41:13;;;;;;;5.90;3.70;;;;;;;-128.00;-1.00;-1.00;97770;297;1003234;-30
2023/05/28 03:43:40;;;;;;;8.30;4.20;;;;;;;-128.00;-1.00;-1.00;97892;297;1003919;-34
2023/05/28 03:46:05;;;;;;;6.90;4.00;;;;;;;-128.00;-1.00;-1.00;97797;297;1003236;-33
2023/05/28 03:48:31;;;;;;;7.70;4.30;;;;;;;-128.00;-1.00;-1.00;97791;297;1002890;-29
2023/05/28 03:50:57;;;;;;;16.50;4.20;;;;;;;-128.00;-1.00;-1.00;97749;297;1003673;-29
2023/05/28 03:53:22;;;;;;;9.30;5.40;;;;;;;-128.00;-1.00;-1.00;97743;297;1004488;-31
2023/05/28 03:55:48;;;;;;;7.60;4.80;;;;;;;-128.00;-1.00;-1.00;97806;297;1004381;-33
2023/05/28 03:58:15;;;;;;;6.70;4.40;;;;;;;-128.00;-1.00;-1.00;97810;299;1003715;-29
2023/05/28 04:00:41;;;;;;;10.60;3.90;;;;;;;-128.00;-1.00;-1.00;97632;297;1003353;-34
2023/05/28 04:03:07;;;;;;;9.50;4.50;;;;;;;-128.00;-1.00;-1.00;97696;297;1003387;-30
2023/05/28 04:05:33;;;;;;;5.70;3.80;;;;;;;-128.00;-1.00;-1.00;97838;297;1003795;-37
2023/05/28 04:07:59;;;;;;;9.20;4.10;;;;;;;-128.00;-1.00;-1.00;97820;297;1003516;-34
2023/05/28 04:10:25;;;;;;;13.40;3.10;;;;;;;-128.00;-1.00;-1.00;97785;297;1003059;-31
2023/05/28 04:12:52;;;;;;;4.40;2.20;;;;;;;-128.00;-1.00;-1.00;97761;299;1005006;-30
2023/05/28 04:15:18;;;;;;;8.90;3.70;;;;;;;-128.00;-1.00;-1.00;97916;297;1005183;-28
2023/05/28 04:17:44;;;;;;;5.80;2.80;;;;;;;-128.00;-1.00;-1.00;97732;297;1004351;-34
2023/05/28 04:20:10;;;;;;;4.60;2.50;;;;;;;-128.00;-1.00;-1.00;97890;297;1003821;-32
2023/05/28 04:22:36;;;;;;;5.30;2.30;;;;;;;-128.00;-1.00;-1.00;97758;297;1003898;-31
2023/05/28 04:25:02;;;;;;;6.50;2.80;;;;;;;-128.00;-1.00;-1.00;97723;297;1003543;-36
2023/05/28 04:27:27;;;;;;;6.80;2.30;;;;;;;-128.00;-1.00;-1.00;97665;297;1005616;-37
2023/05/28 04:29:54;;;;;;;12.10;2.40;;;;;;;-128.00;-1.00;-1.00;97848;297;1002847;-30
2023/05/28 04:32:20;;;;;;;4.00;2.00;;;;;;;-128.00;-1.00;-1.00;97826;297;1003561;-29
2023/05/28 04:34:47;;;;;;;6.50;2.40;;;;;;;-128.00;-1.00;-1.00;97800;297;1003544;-30
2023/05/28 04:37:12;;;;;;;4.60;2.50;;;;;;;-128.00;-1.00;-1.00;97764;297;1004796;-34
2023/05/28 04:39:38;;;;;;;4.30;2.60;;;;;;;-128.00;-1.00;-1.00;97770;298;1004337;-34
2023/05/28 04:42:07;;;;;;;3.40;2.10;;;;;;;-128.00;-1.00;-1.00;97810;297;1003003;-34
2023/05/28 04:44:33;;;;;;;6.90;2.60;;;;;;;-128.00;-1.00;-1.00;97854;297;1004417;-34
2023/05/28 04:46:59;;;;;;;4.20;2.70;;;;;;;-128.00;-1.00;-1.00;97665;297;1004169;-34
2023/05/28 04:49:25;;;;;;;5.40;2.70;;;;;;;-128.00;-1.00;-1.00;97831;297;1004362;-34
2023/05/28 04:51:51;;;;;;;3.90;2.90;;;;;;;-128.00;-1.00;-1.00;97809;297;1003398;-35
2023/05/28 04:54:17;;;;;;;12.00;2.80;;;;;;;-128.00;-1.00;-1.00;97736;297;1005339;-31
2023/05/28 04:56:43;;;;;;;4.60;2.30;;;;;;;-128.00;-1.00;-1.00;97658;300;1002868;-36
2023/05/28 04:59:09;;;;;;;5.40;2.80;;;;;;;-128.00;-1.00;-1.00;97730;297;1004278;-34
2023/05/28 05:01:36;;;;;;;6.00;3.20;;;;;;;-128.00;-1.00;-1.00;97826;297;1004054;-34
2023/05/28 05:04:02;;;;;;;3.20;2.30;;;;;;;-128.00;-1.00;-1.00;97805;286;1003082;-34
2023/05/28 05:06:27;;;;;;;4.50;2.60;;;;;;;-128.00;-1.00;-1.00;97806;297;1003647;-34
2023/05/28 05:08:53;;;;;;;4.50;2.40;;;;;;;-128.00;-1.00;-1.00;97807;297;1003520;-29
2023/05/28 05:11:20;;;;;;;4.50;2.40;;;;;;;-128.00;-1.00;-1.00;97754;297;1003299;-29
2023/05/28 05:13:45;;;;;;;6.90;3.20;;;;;;;-128.00;-1.00;-1.00;97803;297;1002664;-30
2023/05/28 05:16:12;;;;;;;6.70;3.20;;;;;;;-128.00;-1.00;-1.00;97766;297;1004272;-31
2023/05/28 05:18:38;;;;;;;5.10;3.60;;;;;;;-128.00;-1.00;-1.00;97881;297;1002970;-36
2023/05/28 05:21:03;;;;;;;4.90;3.30;;;;;;;-128.00;-1.00;-1.00;97806;297;1004859;-37
2023/05/28 05:23:29;;;;;;;4.50;3.30;;;;;;;-128.00;-1.00;-1.00;97812;297;1003533;-34
2023/05/28 05:25:55;;;;;;;6.40;3.10;;;;;;;-128.00;-1.00;-1.00;97810;297;1004750;-34
2023/05/28 05:28:20;;;;;;;6.00;3.20;;;;;;;-128.00;-1.00;-1.00;97846;297;1004868;-35
2023/05/28 05:30:46;;;;;;;5.60;2.10;;;;;;;-128.00;-1.00;-1.00;97803;297;1005036;-30
2023/05/28 05:33:11;;;;;;;3.50;2.20;;;;;;;-128.00;-1.00;-1.00;97776;297;1003734;-30
2023/05/28 05:35:37;;;;;;;2.00;1.40;;;;;;;-128.00;-1.00;-1.00;97738;297;1004186;-32
2023/05/28 05:38:02;;;;;;;3.50;2.50;;;;;;;-128.00;-1.00;-1.00;97850;297;1002739;-35
2023/05/28 05:40:28;;;;;;;3.70;2.10;;;;;;;-128.00;-1.00;-1.00;97847;297;1004966;-31
2023/05/28 05:42:53;;;;;;;3.60;2.20;;;;;;;-128.00;-1.00;-1.00;97807;297;1004318;-35
2023/05/28 05:45:19;;;;;;;3.00;1.40;;;;;;;-128.00;-1.00;-1.00;97745;287;1002978;-37
2023/05/28 05:47:45;;;;;;;4.10;2.40;;;;;;;-128.00;-1.00;-1.00;97842;297;1003847;-35
2023/05/28 05:50:12;;;;;;;2.60;1.50;;;;;;;-128.00;-1.00;-1.00;97804;297;1003448;-31
2023/05/28 05:52:38;;;;;;;3.80;1.60;;;;;;;-128.00;-1.00;-1.00;97771;297;1004345;-30
2023/05/28 05:55:05;;;;;;;4.00;1.90;;;;;;;-128.00;-1.00;-1.00;97881;297;1003193;-35
2023/05/28 05:57:32;;;;;;;2.50;1.80;;;;;;;-128.00;-1.00;-1.00;97870;297;1003991;-32
2023/05/28 05:59:57;;;;;;;2.10;1.50;;;;;;;-128.00;-1.00;-1.00;97774;297;1002698;-37
2023/05/28 06:02:23;;;;;;;1.80;0.90;;;;;;;-128.00;-1.00;-1.00;97754;299;1003555;-36
2023/05/28 06:04:49;;;;;;;4.20;1.40;;;;;;;-128.00;-1.00;-1.00;97852;297;1003514;-36
2023/05/28 06:07:14;;;;;;;1.40;0.90;;;;;;;-128.00;-1.00;-1.00;97805;297;1003447;-32
2023/05/28 06:09:40;;;;;;;3.50;1.20;;;;;;;-128.00;-1.00;-1.00;97714;297;1004945;-37
2023/05/28 06:12:06;;;;;;;11.40;1.00;;;;;;;-128.00;-1.00;-1.00;97732;287;1003262;-37
2023/05/28 06:14:32;;;;;;;1.90;0.90;;;;;;;-128.00;-1.00;-1.00;97785;297;1002609;-32
2023/05/28 06:16:58;;;;;;;10.10;1.30;;;;;;;-128.00;-1.00;-1.00;97867;287;1004709;-33
2023/05/28 06:19:23;;;;;;;2.10;1.20;;;;;;;-128.00;-1.00;-1.00;97784;298;1004582;-35
2023/05/28 06:21:49;;;;;;;3.20;1.50;;;;;;;-128.00;-1.00;-1.00;97809;297;1005204;-37
2023/05/28 06:24:14;;;;;;;1.50;1.10;;;;;;;-128.00;-1.00;-1.00;97782;297;1005633;-32
2023/05/28 06:26:40;;;;;;;3.90;1.20;;;;;;;-128.00;-1.00;-1.00;97784;297;1003682;-37
2023/05/28 06:29:07;;;;;;;3.20;1.40;;;;;;;-128.00;-1.00;-1.00;97870;297;1003807;-34
2023/05/28 06:31:33;;;;;;;6.60;1.90;;;;;;;-128.00;-1.00;-1.00;97614;297;1003132;-31
2023/05/28 06:33:58;;;;;;;5.80;2.00;;;;;;;-128.00;-1.00;-1.00;97662;297;1005420;-31
2023/05/28 06:36:24;;;;;;;5.90;1.10;;;;;;;-128.00;-1.00;-1.00;97474;297;1005272;-30
2023/05/28 06:38:50;;;;;;;5.60;0.80;;;;;;;-128.00;-1.00;-1.00;97564;297;1005257;-35
2023/05/28 06:41:15;;;;;;;2.20;0.90;;;;;;;-128.00;-1.00;-1.00;97568;297;1004705;-35
2023/05/28 06:43:41;;;;;;;2.60;0.90;;;;;;;-128.00;-1.00;-1.00;97611;297;1005541;-37
2023/05/28 06:46:08;;;;;;;9.70;7.00;;;;;;;-128.00;-1.00;-1.00;97678;297;1004488;-35
2023/05/28 06:48:34;;;;;;;2.20;0.90;;;;;;;-128.00;-1.00;-1.00;97677;297;1005071;-31
2023/05/28 06:51:00;;;;;;;11.00;9.00;;;;;;;-128.00;-1.00;-1.00;97511;297;1005248;-34
2023/05/28 06:53:25;;;;;;;4.40;2.80;;;;;;;-128.00;-1.00;-1.00;97618;297;1005649;-35
2023/05/28 06:55:51;;;;;;;3.40;1.50;;;;;;;-128.00;-1.00;-1.00;96860;297;1004484;-34
2023/05/28 06:58:16;;;;;;;7.60;3.20;;;;;;;-128.00;-1.00;-1.00;97508;287;1005522;-37
2023/05/28 07:00:42;;;;;;;1.30;0.70;;;;;;;-128.00;-1.00;-1.00;96251;297;1003253;-31
2023/05/28 07:03:08;;;;;;;1.40;1.00;;;;;;;-128.00;-1.00;-1.00;95669;297;1003130;-31
2023/05/28 07:05:36;;;;;;;30.80;18.50;;;;;;;-128.00;-1.00;-1.00;97701;286;1003913;-36
2023/05/28 07:08:02;;;;;;;8.20;6.10;;;;;;;-128.00;-1.00;-1.00;97726;297;1003015;-32
2023/05/28 07:10:27;;;;;;;2.70;0.80;;;;;;;-128.00;-1.00;-1.00;97098;297;1004659;-31
2023/05/28 07:12:53;;;;;;;1.10;0.70;;;;;;;-128.00;-1.00;-1.00;97750;297;1004674;-31
2023/05/28 07:15:21;;;;;;;2.00;0.50;;;;;;;-128.00;-1.00;-1.00;97846;297;1004373;-31
2023/05/28 07:17:47;;;;;;;6.40;3.70;;;;;;;-128.00;-1.00;-1.00;97820;297;1003094;-33
2023/05/28 07:20:13;;;;;;;5.60;3.20;;;;;;;-128.00;-1.00;-1.00;97661;297;1004949;-33
2023/05/28 07:22:39;;;;;;;5.50;1.70;;;;;;;-128.00;-1.00;-1.00;97642;297;1004048;-37
2023/05/28 07:25:05;;;;;;;3.70;1.50;;;;;;;-128.00;-1.00;-1.00;97559;297;1005618;-32
2023/05/28 07:27:31;;;;;;;2.20;1.00;;;;;;;-128.00;-1.00;-1.00;97591;297;1004466;-34
2023/05/28 07:29:57;;;;;;;7.80;1.20;;;;;;;-128.00;-1.00;-1.00;97534;297;1004314;-37
2023/05/28 07:32:22;;;;;;;3.10;1.90;;;;;;;-128.00;-1.00;-1.00;97632;297;1004912;-33
2023/05/28 07:34:48;;;;;;;3.00;1.50;;;;;;;-128.00;-1.00;-1.00;97546;297;1005482;-37
2023/05/28 07:37:13;;;;;;;4.20;1.70;;;;;;;-128.00;-1.00;-1.00;97559;297;1004702;-38
2023/05/28 07:39:39;;;;;;;2.20;0.90;;;;;;;-128.00;-1.00;-1.00;97640;297;1005763;-36
2023/05/28 07:42:06;;;;;;;3.00;1.50;;;;;;;-128.00;-1.00;-1.00;97470;297;1005237;-32
2023/05/28 07:44:32;;;;;;;3.10;1.70;;;;;;;-128.00;-1.00;-1.00;97615;297;1005268;-31
2023/05/28 07:46:58;;;;;;;2.80;1.50;;;;;;;-128.00;-1.00;-1.00;97722;297;1004201;-33
2023/05/28 07:49:24;;;;;;;3.70;1.20;;;;;;;-128.00;-1.00;-1.00;97034;297;1005268;-36
2023/05/28 07:51:49;;;;;;;1.90;0.80;;;;;;;-128.00;-1.00;-1.00;97684;299;1005223;-37
2023/05/28 07:54:15;;;;;;;2.00;1.40;;;;;;;-128.00;-1.00;-1.00;97528;297;1004755;-32
2023/05/28 07:56:41;;;;;;;1.60;1.10;;;;;;;-128.00;-1.00;-1.00;97615;297;1005792;-33
2023/05/28 07:59:06;;;;;;;9.40;1.20;;;;;;;-128.00;-1.00;-1.00;97611;297;1004474;-34
2023/05/28 08:01:34;;;;;;;4.60;0.70;;;;;;;-128.00;-1.00;-1.00;97522;297;1005012;-34
2023/05/28 08:04:00;;;;;;;3.30;0.90;;;;;;;-128.00;-1.00;-1.00;97625;297;1004809;-33
2023/05/28 08:06:26;;;;;;;3.50;1.40;;;;;;;-128.00;-1.00;-1.00;97598;297;1005374;-31
2023/05/28 08:08:52;;;;;;;73.60;41.80;;;;;;;-128.00;-1.00;-1.00;97690;297;1004618;-31
2023/05/28 08:11:17;;;;;;;1.40;0.70;;;;;;;-128.00;-1.00;-1.00;97703;297;1004524;-35
2023/05/28 08:13:43;;;;;;;16.60;11.00;;;;;;;-128.00;-1.00;-1.00;97531;297;1004367;-31
2023/05/28 08:16:12;;;;;;;1.90;0.30;;;;;;;-128.00;-1.00;-1.00;97577;297;1004827;-35
2023/05/28 08:18:39;;;;;;;6.40;0.80;;;;;;;-128.00;-1.00;-1.00;97636;297;1005867;-35
2023/05/28 08:21:06;;;;;;;6.40;4.10;;;;;;;-128.00;-1.00;-1.00;97426;297;1005172;-31
2023/05/28 08:23:34;;;;;;;2.40;2.10;;;;;;;-128.00;-1.00;-1.00;97592;297;1005244;-35
2023/05/28 08:26:01;;;;;;;1.40;1.10;;;;;;;-128.00;-1.00;-1.00;97589;297;1004825;-38
2023/05/28 08:28:28;;;;;;;0.50;0.30;;;;;;;-128.00;-1.00;-1.00;97565;297;1005768;-32
2023/05/28 08:30:53;;;;;;;0.90;0.50;;;;;;;-128.00;-1.00;-1.00;97665;297;1004099;-32
2023/05/28 08:33:19;;;;;;;2.90;0.90;;;;;;;-128.00;-1.00;-1.00;97580;297;1004874;-30
2023/05/28 08:35:45;;;;;;;1.50;0.60;;;;;;;-128.00;-1.00;-1.00;97531;297;1005283;-32
2023/05/28 08:38:10;;;;;;;1.40;1.00;;;;;;;-128.00;-1.00;-1.00;97672;297;1004979;-35
2023/05/28 08:40:40;;;;;;;3.20;1.30;;;;;;;-128.00;-1.00;-1.00;97570;297;1006251;-35
2023/05/28 08:43:07;;;;;;;1.50;0.50;;;;;;;-128.00;-1.00;-1.00;97473;299;1005013;-33
2023/05/28 08:45:34;;;;;;;4.50;0.70;;;;;;;-128.00;-1.00;-1.00;97641;297;1004393;-35
2023/05/28 08:48:01;;;;;;;0.50;0.30;;;;;;;-128.00;-1.00;-1.00;97690;286;1005510;-32
2023/05/28 08:50:27;;;;;;;1.90;0.60;;;;;;;-128.00;-1.00;-1.00;97494;297;1005466;-32
2023/05/28 08:52:53;;;;;;;3.10;0.50;;;;;;;-128.00;-1.00;-1.00;97515;297;1005261;-31
2023/05/28 08:55:19;;;;;;;3.40;0.60;;;;;;;-128.00;-1.00;-1.00;97593;297;1005384;-36
2023/05/28 08:57:46;;;;;;;1.80;0.80;;;;;;;-128.00;-1.00;-1.00;97533;298;1005818;-31
2023/05/28 09:00:12;;;;;;;5.50;4.00;;;;;;;-128.00;-1.00;-1.00;97615;297;1005478;-31
2023/05/28 09:02:38;;;;;;;2.40;1.40;;;;;;;-128.00;-1.00;-1.00;97595;297;1004535;-34
2023/05/28 09:05:05;;;;;;;1.70;1.00;;;;;;;-128.00;-1.00;-1.00;97447;298;1005210;-37
2023/05/28 09:07:32;;;;;;;2.40;0.90;;;;;;;-128.00;-1.00;-1.00;97630;297;1005473;-31
2023/05/28 09:09:58;;;;;;;1.90;0.90;;;;;;;-128.00;-1.00;-1.00;97643;297;1005257;-31
2023/05/28 09:12:24;;;;;;;4.00;1.60;;;;;;;-128.00;-1.00;-1.00;97653;297;1005449;-31
2023/05/28 09:14:52;;;;;;;5.20;0.80;;;;;;;-128.00;-1.00;-1.00;97605;297;1005525;-34
2023/05/28 09:17:35;;;;;;;1.60;0.60;;;;;;;-128.00;-1.00;-1.00;97593;286;1005085;-36
2023/05/28 09:20:11;;;;;;;4.90;0.80;;;;;;;-128.00;-1.00;-1.00;97639;294;1004604;-31
2023/05/28 09:22:37;;;;;;;3.70;0.60;;;;;;;-128.00;-1.00;-1.00;97684;297;1005041;-31
2023/05/28 09:25:04;;;;;;;6.40;0.60;;;;;;;-128.00;-1.00;-1.00;97577;297;1005426;-30
2023/05/28 09:27:30;;;;;;;1.10;0.50;;;;;;;-128.00;-1.00;-1.00;97655;297;1005673;-32
2023/05/28 09:29:55;;;;;;;1.10;0.70;;;;;;;-128.00;-1.00;-1.00;97668;297;1005433;-35
2023/05/28 09:32:21;;;;;;;2.30;0.80;;;;;;;-128.00;-1.00;-1.00;97605;297;1005591;-36
2023/05/28 09:34:48;;;;;;;5.20;2.10;;;;;;;-128.00;-1.00;-1.00;97599;297;1005431;-31
2023/05/28 09:37:15;;;;;;;0.40;0.20;;;;;;;-128.00;-1.00;-1.00;97639;297;1004427;-37
2023/05/28 09:39:41;;;;;;;2.20;0.80;;;;;;;-128.00;-1.00;-1.00;97647;297;1005350;-34
2023/05/28 09:42:09;;;;;;;1.90;0.70;;;;;;;-128.00;-1.00;-1.00;97593;297;1005787;-36
2023/05/28 09:44:36;;;;;;;1.60;0.40;;;;;;;-128.00;-1.00;-1.00;97624;297;1004708;-33
2023/05/28 09:47:15;;;;;;;10.00;0.60;;;;;;;-128.00;-1.00;-1.00;97627;297;1004421;-34
2023/05/28 09:49:44;;;;;;;1.80;0.80;;;;;;;-128.00;-1.00;-1.00;97595;297;1005152;-31
2023/05/28 09:52:20;;;;;;;2.30;0.70;;;;;;;-128.00;-1.00;-1.00;97547;298;1004983;-35
2023/05/28 09:54:53;;;;;;;0.90;0.70;;;;;;;-128.00;-1.00;-1.00;97517;297;1005219;-30
2023/05/28 09:57:27;;;;;;;1.30;0.40;;;;;;;-128.00;-1.00;-1.00;97517;297;1004869;-31
2023/05/28 09:59:55;;;;;;;2.80;1.50;;;;;;;-128.00;-1.00;-1.00;97571;297;1004653;-37
2023/05/28 10:02:28;;;;;;;3.60;1.20;;;;;;;-128.00;-1.00;-1.00;97558;297;1005619;-31
2023/05/28 10:04:54;;;;;;;1.20;0.90;;;;;;;-128.00;-1.00;-1.00;97418;287;1005513;-33
2023/05/28 10:07:21;;;;;;;3.20;0.50;;;;;;;-128.00;-1.00;-1.00;97594;297;1005698;-32
2023/05/28 10:09:47;;;;;;;5.00;0.60;;;;;;;-128.00;-1.00;-1.00;97553;297;1005036;-31
2023/05/28 10:12:17;;;;;;;4.40;0.50;;;;;;;-128.00;-1.00;-1.00;97596;297;1005095;-35
2023/05/28 10:14:43;;;;;;;1.70;0.60;;;;;;;-128.00;-1.00;-1.00;97593;297;1004866;-36
2023/05/28 10:17:09;;;;;;;6.20;0.60;;;;;;;-128.00;-1.00;-1.00;97663;297;1003902;-36
2023/05/28 10:19:35;;;;;;;5.80;0.70;;;;;;;-128.00;-1.00;-1.00;97091;297;1003927;-31
2023/05/28 10:22:01;;;;;;;2.00;0.80;;;;;;;-128.00;-1.00;-1.00;97815;297;1003207;-35
2023/05/28 10:24:26;;;;;;;1.30;0.60;;;;;;;-128.00;-1.00;-1.00;97819;297;1003166;-36
2023/05/28 10:26:55;;;;;;;3.60;1.00;;;;;;;-128.00;-1.00;-1.00;97717;297;1003043;-31
2023/05/28 10:29:21;;;;;;;41.30;24.00;;;;;;;-128.00;-1.00;-1.00;97600;297;1004309;-31
2023/05/28 10:31:57;;;;;;;355.10;213.60;;;;;;;-128.00;-1.00;-1.00;97638;297;1005643;-31
2023/05/28 10:34:29;;;;;;;13.80;9.00;;;;;;;-128.00;-1.00;-1.00;97619;297;1005587;-37
2023/05/28 10:36:55;;;;;;;1.40;1.00;;;;;;;-128.00;-1.00;-1.00;97455;298;1005729;-31
2023/05/28 10:39:20;;;;;;;5.00;0.70;;;;;;;-128.00;-1.00;-1.00;97527;298;1005482;-36
2023/05/28 10:41:46;;;;;;;2.40;0.70;;;;;;;-128.00;-1.00;-1.00;97585;297;1005283;-32
2023/05/28 10:44:11;;;;;;;12.40;10.00;;;;;;;-128.00;-1.00;-1.00;97564;297;1005350;-36
2023/05/28 10:46:38;;;;;;;1.10;0.40;;;;;;;-128.00;-1.00;-1.00;97695;297;1004663;-32
2023/05/28 10:49:17;;;;;;;1.80;0.80;;;;;;;-128.00;-1.00;-1.00;97646;297;1005365;-36
2023/05/28 10:51:59;;;;;;;15.70;0.90;;;;;;;-128.00;-1.00;-1.00;97516;297;1005655;-36
2023/05/28 10:54:40;;;;;;;7.50;0.70;;;;;;;-128.00;-1.00;-1.00;97620;297;1005787;-35
2023/05/28 10:57:15;;;;;;;3.30;0.60;;;;;;;-128.00;-1.00;-1.00;97627;297;1004876;-31
2023/05/28 10:59:51;;;;;;;1.60;1.30;;;;;;;-128.00;-1.00;-1.00;97711;297;1004603;-32
2023/05/28 11:02:25;;;;;;;2.80;0.50;;;;;;;-128.00;-1.00;-1.00;97450;297;1003800;-35
2023/05/28 11:44:54;;;;;;;2.00;0.60;;;;;;;-101.14;25.01;39900.68;21621;302;7868344;-36
2023/05/28 11:47:20;;;;;;;0.90;0.80;;;;;;;-128.00;-1.00;-1.00;24543;295;7504711;-36
2023/05/28 11:49:48;;;;;;;0.80;0.60;;;;;;;-67.60;10.62;39900.59;42614;293;7504323;-35
2023/05/28 11:52:15;;;;;;;1.50;0.70;;;;;;;-67.40;10.43;39898.03;59011;282;7504206;-33
2023/05/28 11:54:42;;;;;;;3.40;0.60;;;;;;;23.96;27.29;99729.16;101125;293;24142;-31
2023/05/28 11:57:08;;;;;;;8.10;1.00;;;;;;;23.91;27.08;99726.73;101160;293;25297;-33
2023/05/28 11:59:34;;;;;;;1.10;0.60;;;;;;;23.41;27.22;99730.41;101203;293;24746;-30
2023/05/28 12:02:13;;;;;;;1.80;0.60;;;;;;;23.22;28.14;99728.31;101215;293;25655;-36
2023/05/28 12:04:39;;;;;;;0.90;0.40;;;;;;;23.68;27.79;99727.52;101431;293;24108;-39
2023/05/28 12:07:05;;;;;;;1.00;0.30;;;;;;;23.94;27.71;99724.17;101247;293;22571;-35
2023/05/28 12:09:30;;;;;;;1.10;0.60;;;;;;;24.21;27.79;99719.98;101141;293;26856;-29